Latest Coastal Weather Observations for King Island Airport

IDT60701

Issued at 7:32 am EDT Thursday 19 October 2017 (issued every 10 minutes, with the page automatically refreshed every 10 minutes)

About coastal observations | Map of coastal stations | Coastal observations for TAS | Marine services | Other Formats
Station Details ID: 098017 Name: KING ISLAND AIRPORT Lat: -39.88 Lon: 143.88 Height: 37.0 m
Data from the previous 72 hours. | See also: Recent months at King Island Airport
Date/Time
EDT
Temp
°C
Wind Pressure Rain since
9am
mm
Weather Cloud Vis
km
Sea
Height
m
Swell
Dir  Spd
kts
Gust
kts
hPa Trend Height
m
Period
s
Dir
19/07:30am 16.3 NNE 5 7 1013.9 - 11.4 - Cloudy 10 - - - -
19/07:00am 15.8 NNE 1 4 1013.7 - 11.0 - Cloudy 9 - - - -
19/06:41am 15.8 ENE 4 5 1013.3 - 10.4 - Partly cloudy 9 - - - -
19/06:30am 15.7 CALM 0 0 1013.3 - 10.2 - Partly cloudy 5 - - - -
19/06:00am 15.7 WSW 6 8 1013.8 - 7.2 Rain Cloudy 3 - - - -
19/05:30am 15.5 SW 9 12 1013.2 - 3.4 - Partly cloudy 5 - - - -
19/05:06am 15.7 WSW 10 12 1013.2 - 1.4 - Partly cloudy 5 - - - -
19/05:00am 15.8 SW 12 19 1013.4 - 0.8 - Cloudy 8 - - - -
19/04:30am 16.5 WSW 9 13 1012.6 - 0.0 - Partly cloudy 10 - - - -
19/04:00am 17.9 NW 7 10 1012.5 - 0.0 - Partly cloudy 10 - - - -
19/03:30am 17.5 NNW 6 8 1012.7 - 0.0 - Partly cloudy 10 - - - -
19/03:00am 18.2 NNW 10 13 1012.8 - 0.0 - Mostly cloudy 10 - - - -
19/02:51am 18.2 NW 13 19 1013.2 - 0.0 - Cloudy 10 - - - -
19/02:39am 18.8 NNW 13 33 1013.8 - 0.0 - Cloudy 10 - - - -
19/02:30am 20.6 N 9 14 1012.3 - 0.0 - Cloudy 10 - - - -
19/02:00am 20.5 N 12 15 1012.4 - 0.0 - Partly cloudy 10 - - - -
19/01:30am 21.5 NNE 11 16 1012.8 - 0.0 - Partly cloudy 10 - - - -
19/01:00am 21.7 NNE 16 21 1013.0 - 0.0 - Partly cloudy 10 - - - -
19/12:30am 22.0 NNE 17 22 1013.3 - 0.0 - Partly cloudy 10 - - - -
19/12:00am 22.5 NNE 18 24 1013.8 - 0.0 - Cloudy 10 - - - -
 
Date/Time
EDT
Temp
°C
Wind Pressure Rain since
9am
mm
Weather Cloud Vis
km
Sea
Height
m
Swell
Dir  Spd
kts
Gust
kts
hPa Trend Height
m
Period
s
Dir
18/11:30pm 22.6 NNE 17 22 1013.9 - 0.0 - Partly cloudy 10 - - - -
18/11:00pm 22.4 NNE 18 22 1014.2 - 0.0 - - 10 - - - -
18/10:30pm 21.1 NNE 14 16 1014.6 - 0.0 - - 10 - - - -
18/10:00pm 20.2 NE 13 17 1015.0 - 0.0 - Partly cloudy 10 - - - -
18/09:30pm 19.9 NE 10 14 1015.5 - 0.0 - Partly cloudy 10 - - - -
18/09:00pm 19.6 NE 9 11 1015.6 - 0.0 - - 10 - - - -
18/08:30pm 19.9 NE 9 12 1015.5 - 0.0 - - 10 - - - -
18/08:00pm 20.1 NE 9 13 1015.5 - 0.0 - Partly cloudy 10 - - - -
18/07:30pm 21.1 NE 10 12 1015.6 - 0.0 - Partly cloudy 10 - - - -
18/07:00pm 22.7 NE 10 12 1015.4 - 0.0 - Partly cloudy 10 - - - -
18/06:30pm 24.2 NNE 10 14 1015.5 - 0.0 - Partly cloudy 10 - - - -
18/06:00pm 23.9 NNE 12 16 1015.5 - 0.0 - Mostly cloudy 10 - - - -
18/05:30pm 25.0 NNE 14 17 1015.3 - 0.0 - Cloudy 10 - - - -
18/05:00pm 25.3 NNE 12 19 1015.4 - 0.0 - Cloudy 10 - - - -
18/04:30pm 24.6 NNE 13 17 1015.6 - 0.0 - Cloudy 10 - - - -
18/04:00pm 26.4 NNE 12 17 1015.8 - 0.0 - Partly cloudy 10 - - - -
18/03:30pm 27.6 NNE 13 17 1016.0 - 0.0 - - 10 - - - -
18/03:00pm 27.5 NNE 13 18 1016.5 - 0.0 - - 10 - - - -
18/02:30pm 27.2 NNE 13 16 1016.9 - 0.0 - - 10 - - - -
18/02:00pm 26.5 NNE 14 17 1017.3 - 0.0 - - 10 - - - -
18/01:30pm 26.2 NNE 13 18 1017.7 - 0.0 - - 10 - - - -
18/01:00pm 25.3 NNE 14 20 1018.0 - 0.0 - - 10 - - - -
18/12:30pm 25.7 NNE 16 20 1018.3 - 0.0 - - 10 - - - -
18/12:00pm 24.7 NNE 13 17 1018.7 - 0.0 - - 10 - - - -
18/11:30am 23.9 NNE 13 17 1019.0 - 0.0 - - 10 - - - -
18/11:00am 23.8 NNE 13 17 1019.3 - 0.0 - - 10 - - - -
18/10:30am 23.8 NE 14 17 1019.5 - 0.0 - - 10 - - - -
18/10:00am 22.8 NE 13 17 1019.6 - 0.0 - - 10 - - - -
18/09:30am 21.6 NE 12 16 1019.7 - 0.0 - - 10 - - - -
18/09:00am 20.7 NE 9 13 1020.0 - 0.0 - - 10 - - - -
18/08:30am 19.6 ENE 7 10 1020.1 - 0.0 - - 10 - - - -
18/08:00am 18.5 ENE 7 10 1020.0 - 0.0 - - 10 - - - -
18/07:30am 17.0 NE 8 11 1019.7 - 0.0 - - 10 - - - -
18/07:00am 15.5 NE 8 10 1019.5 - 0.0 - - 10 - - - -
18/06:30am 14.9 NE 6 8 1019.3 - 0.0 - - 10 - - - -
18/06:00am 15.4 NE 8 10 1018.9 - 0.0 - - 10 - - - -
18/05:30am 15.7 NE 8 13 1018.6 - 0.0 - - 10 - - - -
18/05:00am 15.7 NE 9 12 1018.4 - 0.0 - - 10 - - - -
18/04:30am 15.9 NE 11 15 1018.5 - 0.0 - - 10 - - - -
18/04:00am 16.0 NE 10 14 1018.7 - 0.0 - - 10 - - - -
18/03:30am 16.4 NE 10 14 1018.9 - 0.0 - - 10 - - - -
18/03:00am 16.8 NE 10 14 1019.1 - 0.0 - - 10 - - - -
18/02:30am 16.9 NE 12 16 1019.2 - 0.0 - - 10 - - - -
18/02:00am 17.0 NE 12 17 1019.4 - 0.0 - - 10 - - - -
18/01:30am 16.7 ENE 10 13 1019.8 - 0.0 - - 10 - - - -
18/01:00am 15.2 E 9 12 1020.2 - 0.0 - - 10 - - - -
18/12:30am 15.3 ENE 10 13 1020.5 - 0.0 - - 10 - - - -
18/12:00am 15.6 ENE 11 14 1020.6 - 0.0 - - 10 - - - -
 
Date/Time
EDT
Temp
°C
Wind Pressure Rain since
9am
mm
Weather Cloud Vis
km
Sea
Height
m
Swell
Dir  Spd
kts
Gust
kts
hPa Trend Height
m
Period
s
Dir
17/11:30pm 14.5 E 10 14 1020.7 - 0.0 - - 10 - - - -
17/11:00pm 13.7 E 10 12 1021.1 - 0.0 - - 10 - - - -
17/10:30pm 13.9 E 11 13 1021.6 - 0.0 - - 10 - - - -
17/10:00pm 13.9 E 9 11 1021.6 - 0.0 - - 10 - - - -
17/09:30pm 14.1 E 9 12 1021.7 - 0.0 - - 10 - - - -
17/09:00pm 14.1 E 9 12 1021.6 - 0.0 - - 10 - - - -
17/08:30pm 14.3 E 10 14 1021.6 - 0.0 - - 10 - - - -
17/08:00pm 14.6 E 10 12 1021.5 - 0.0 - - 10 - - - -
17/07:30pm 15.6 E 9 12 1021.2 - 0.0 - - 10 - - - -
17/07:00pm 16.8 E 9 12 1021.0 - 0.0 - - 10 - - - -
17/06:30pm 18.3 ESE 11 13 1020.8 - 0.0 - - 10 - - - -
17/06:00pm 20.1 ENE 10 14 1020.4 - 0.0 - - 10 - - - -
17/05:30pm 20.7 ENE 11 13 1020.3 - 0.0 - - 10 - - - -
17/05:00pm 21.1 E 11 14 1020.4 - 0.0 - - 10 - - - -
17/04:30pm 21.7 ENE 11 15 1020.6 - 0.0 - - 10 - - - -
17/04:00pm 22.1 ENE 12 14 1020.7 - 0.0 - - 10 - - - -
17/03:30pm 22.3 ENE 11 14 1020.9 - 0.0 - - 10 - - - -
17/03:00pm 21.9 ENE 10 14 1021.2 - 0.0 - - 10 - - - -
17/02:30pm 21.4 ENE 11 15 1021.5 - 0.0 - - 10 - - - -
17/02:00pm 21.3 ENE 13 16 1021.6 - 0.0 - - 10 - - - -
17/01:30pm 21.6 ENE 12 15 1021.6 - 0.0 - - 10 - - - -
17/01:00pm 20.5 ENE 12 16 1021.7 - 0.0 - - 10 - - - -
17/12:30pm 20.1 ENE 13 16 1021.9 - 0.0 - - 10 - - - -
17/12:00pm 20.4 ENE 14 17 1022.1 - 0.0 - - 10 - - - -
17/11:30am 19.7 ENE 14 18 1022.3 - 0.0 - - 10 - - - -
17/11:00am 19.2 ENE 14 18 1022.5 - 0.0 - - 10 - - - -
17/10:30am 18.4 ENE 14 17 1022.5 - 0.0 - - 10 - - - -
17/10:00am 17.1 ENE 14 18 1022.3 - 0.0 - - 10 - - - -
17/09:30am 15.7 ENE 10 15 1022.3 - 0.0 - - 10 - - - -
17/09:00am 14.6 E 12 16 1022.2 - 0.0 - Mostly clear 10 - - - -
17/08:56am 14.4 E 11 16 1022.2 - 0.0 - Partly cloudy 10 - - - -
17/08:30am 13.7 E 11 16 1022.2 - 0.0 - Partly cloudy 10 - - - -
17/08:14am 13.1 E 12 17 1022.1 - 0.0 - Cloudy 9 - - - -
17/08:00am 12.8 E 15 18 1022.0 - 0.0 - Cloudy 5 - - - -
17/07:36am 12.4 E 13 16 1022.0 - 0.0 - Cloudy 5 - - - -
17/07:30am 12.3 E 12 15 1022.1 - 0.0 - Partly cloudy 6 - - - -
17/07:18am 12.2 E 11 15 1021.9 - 0.0 - Partly cloudy 7 - - - -
17/07:10am 12.1 E 10 13 1021.8 - 0.0 - Partly cloudy 7 - - - -
17/07:00am 12.0 E 11 15 1021.6 - 0.0 - Partly cloudy 5 - - - -
17/06:59am 12.0 E 11 15 1021.6 - 0.0 - Partly cloudy 5 - - - -
17/06:45am 12.0 E 11 14 1021.5 - 0.0 - Partly cloudy 8 - - - -
17/06:30am 11.9 E 12 15 1021.3 - 0.0 - Partly cloudy 6 - - - -
17/06:21am 11.9 E 10 15 1021.3 - 0.0 - Partly cloudy 6 - - - -
17/06:01am 11.9 E 9 12 1021.2 - 0.0 - Partly cloudy 7 - - - -
17/06:00am 11.8 E 10 12 1021.2 - 0.0 - Mostly clear 7 - - - -
17/05:55am 11.9 E 10 14 1021.1 - 0.0 - Partly cloudy 8 - - - -
17/05:30am 11.9 E 12 15 1021.0 - 0.0 - Cloudy 2 - - - -
17/05:00am 12.0 E 13 16 1021.0 - 0.0 - Cloudy 0.8 - - - -
17/04:30am 12.0 E 13 16 1021.0 - 0.0 - Cloudy 0.6 - - - -
17/04:03am 11.9 E 12 15 1021.1 - 0.0 - Partly cloudy 1 - - - -
17/04:00am 11.8 E 12 14 1021.1 - 0.0 - Partly cloudy 2 - - - -
17/03:53am 11.8 E 11 14 1021.2 - 0.0 - Partly cloudy 5 - - - -
17/03:33am 11.9 E 11 14 1021.3 - 0.0 - Partly cloudy 8 - - - -
17/03:30am 11.9 E 11 15 1021.3 - 0.0 - Partly cloudy 7 - - - -
17/03:11am 11.9 E 12 15 1021.4 - 0.0 - Partly cloudy 5 - - - -
17/03:00am 12.0 E 12 15 1021.4 - 0.0 - Partly cloudy 4 - - - -
17/02:30am 12.2 E 11 15 1021.8 - 0.0 - Cloudy 0.9 - - - -
17/02:00am 12.3 E 12 16 1022.3 - 0.0 - Cloudy 0.7 - - - -
17/01:30am 12.2 E 11 15 1022.8 - 0.0 - Cloudy 0.6 - - - -
17/01:00am 12.1 E 12 17 1023.0 - 0.0 - Cloudy 0.7 - - - -
17/12:30am 11.9 E 11 15 1023.3 - 0.0 - Cloudy 0.8 - - - -
17/12:00am 11.8 E 12 17 1023.4 - 0.0 - Cloudy 1 - - - -
 
Date/Time
EDT
Temp
°C
Wind Pressure Rain since
9am
mm
Weather Cloud Vis
km
Sea
Height
m
Swell
Dir  Spd
kts
Gust
kts
hPa Trend Height
m
Period
s
Dir
16/11:30pm 11.8 E 11 15 1023.5 - 0.0 - Cloudy 1 - - - -
16/11:00pm 11.8 ENE 12 16 1023.6 - 0.0 - Cloudy 1 - - - -
16/10:30pm 12.0 ENE 13 15 1024.0 - 0.0 - Cloudy 3 - - - -
16/10:00pm 12.0 ENE 11 15 1024.1 - 0.0 - Cloudy 4 - - - -
16/09:56pm 12.0 ENE 9 14 1024.1 - 0.0 - Cloudy 5 - - - -
16/09:54pm 12.1 ENE 9 12 1024.1 - 0.0 - Cloudy 6 - - - -
16/09:30pm 12.2 E 13 17 1024.0 - 0.0 - Cloudy 4 - - - -
16/09:24pm 12.2 ENE 13 16 1024.0 - 0.0 - Cloudy 5 - - - -
16/09:00pm 12.4 E 11 16 1023.9 - 0.0 - Cloudy 7 - - - -
16/08:30pm 12.4 ENE 11 17 1023.6 - 0.0 - Cloudy 10 - - - -
16/08:00pm 12.4 E 14 17 1023.4 - 0.0 - Partly cloudy 9 - - - -
16/07:59pm 12.4 E 14 17 1023.4 - 0.0 - Partly cloudy 9 - - - -
16/07:30pm 12.7 E 12 16 1023.1 - 0.0 - - 10 - - - -
16/07:00pm 13.2 E 13 18 1023.1 - 0.0 - - 10 - - - -
16/06:30pm 14.0 E 13 17 1023.1 - 0.0 - - 10 - - - -
16/06:00pm 14.8 E 14 17 1023.0 - 0.0 - - 10 - - - -
16/05:30pm 15.1 E 15 20 1022.9 - 0.0 - - 10 - - - -
16/05:00pm 16.0 E 12 16 1023.1 - 0.0 - - 10 - - - -
16/04:30pm 16.5 E 13 17 1023.2 - 0.0 - - 10 - - - -
16/04:00pm 15.9 ENE 14 17 1023.4 - 0.0 - - 10 - - - -
16/03:30pm 16.1 ENE 14 17 1023.6 - 0.0 - - 10 - - - -
16/03:00pm 16.0 ENE 13 17 1023.9 - 0.0 - - 10 - - - -
16/02:30pm 15.6 ENE 13 17 1024.3 - 0.0 - Partly cloudy 8 - - - -
16/02:26pm 16.2 ENE 13 16 1024.3 - 0.0 - Partly cloudy 8 - - - -
16/02:00pm 15.3 ENE 12 16 1024.6 - 0.0 - Partly cloudy 7 - - - -
16/01:30pm 15.0 ENE 12 16 1024.8 - 0.0 - Cloudy 8 - - - -
16/01:00pm 14.9 ENE 11 14 1025.0 - 0.0 - Cloudy 10 - - - -
16/12:30pm 13.3 ENE 9 13 1025.5 - 0.0 - Cloudy 10 - - - -
16/12:00pm 14.0 NE 10 15 1025.7 - 0.0 - Cloudy 10 - - - -
16/11:30am 14.0 ENE 9 11 1025.9 - 0.0 - Cloudy 10 - - - -
16/11:00am 13.2 E 10 13 1025.9 - 0.0 - Cloudy 10 - - - -
16/10:30am 12.1 ENE 10 14 1026.0 - 0.0 - Cloudy 10 - - - -
16/10:00am 11.5 ENE 8 12 1026.1 - 0.0 - Cloudy 10 - - - -
16/09:30am 10.8 ENE 8 10 1026.1 - 0.0 - Cloudy 10 - - - -
16/09:00am 10.5 ENE 8 13 1026.0 - 0.0 - Cloudy 10 - - - -
16/08:30am 10.1 ENE 6 8 1025.9 - 0.0 - Cloudy 10 - - - -
16/08:00am 9.7 ENE 7 9 1025.8 - 0.0 - Cloudy 9 - - - -
16/07:42am 9.5 NE 6 9 1025.9 - 0.0 - Cloudy 9 - - - -

Other Formats:

Comma delimited format used in spreadsheet applications
http://www.bom.gov.au/fwo/IDT60701/IDT60701.94850.axf

JavaScript Object Notation format (JSON) in row-major order
http://www.bom.gov.au/fwo/IDT60701/IDT60701.94850.json